Time;durP1;ratioP1;P1;durP2;ratioP2;P2;SDS_P1;SDS_P2;PMS_P1;PMS_P2;Temp;Humidity;BMP_temperature;BMP_pressure;BME280_temperature;BME280_humidity;BME280_pressure;Samples;Min_cycle;Max_cycle;Signal;HPM_P1;HPM_P2
2024/01/20 00:02:03;;;;;;;9.75;3.13;;;23.10;57.30;;;;;;5058998;28;20097;-57
2024/01/20 00:04:29;;;;;;;13.77;2.92;;;23.10;57.60;;;;;;5054482;28;20077;-50
2024/01/20 00:06:56;;;;;;;12.60;3.25;;;23.20;57.40;;;;;;5047995;28;20124;-54
2024/01/20 00:09:22;;;;;;;10.80;2.97;;;23.10;56.80;;;;;;5039113;28;20558;-48
2024/01/20 00:11:49;;;;;;;12.07;2.65;;;23.00;56.90;;;;;;5049830;28;20084;-52
2024/01/20 00:14:15;;;;;;;6.97;2.60;;;22.90;56.90;;;;;;5040494;28;20073;-54
2024/01/20 00:16:42;;;;;;;5.25;2.13;;;22.70;56.80;;;;;;5043135;28;20129;-52
2024/01/20 00:19:08;;;;;;;5.50;1.90;;;22.50;57.00;;;;;;5064096;28;20152;-50
2024/01/20 00:21:35;;;;;;;9.07;2.05;;;22.30;57.00;;;;;;5043406;28;20072;-54
2024/01/20 00:24:02;;;;;;;10.15;2.35;;;22.30;57.20;;;;;;5052142;28;20127;-50
2024/01/20 00:26:28;;;;;;;7.50;1.80;;;22.20;57.70;;;;;;5045120;28;20577;-57
2024/01/20 00:28:54;;;;;;;8.95;2.38;;;22.20;57.90;;;;;;5055040;28;20083;-53
2024/01/20 00:31:21;;;;;;;10.98;2.17;;;22.00;58.00;;;;;;5043657;28;20073;-52
2024/01/20 00:33:47;;;;;;;13.65;2.40;;;21.90;58.10;;;;;;5047351;28;20073;-49
2024/01/20 00:36:14;;;;;;;14.50;2.88;;;21.90;58.20;;;;;;5063467;28;20073;-52
2024/01/20 00:38:42;;;;;;;9.43;2.42;;;21.80;58.10;;;;;;5037104;28;20128;-52
2024/01/20 00:41:10;;;;;;;30.50;5.32;;;21.80;58.80;;;;;;5039531;28;20074;-54
2024/01/20 00:43:36;;;;;;;61.75;13.80;;;21.60;59.40;;;;;;5054781;28;20184;-50
2024/01/20 00:46:03;;;;;;;65.63;8.70;;;21.50;59.60;;;;;;5044952;28;20893;-50
2024/01/20 00:48:30;;;;;;;48.33;5.85;;;21.40;60.30;;;;;;5044605;28;20077;-50
2024/01/20 00:50:56;;;;;;;42.90;5.68;;;21.20;61.60;;;;;;5056699;28;20147;-53
2024/01/20 00:53:23;;;;;;;51.88;6.40;;;21.10;61.30;;;;;;5042385;28;20516;-50
2024/01/20 00:55:49;;;;;;;69.75;9.38;;;21.00;60.80;;;;;;5043549;28;20077;-52
2024/01/20 00:58:16;;;;;;;75.85;15.18;;;20.80;61.00;;;;;;5055205;28;20100;-53
2024/01/20 01:00:42;;;;;;;72.10;10.38;;;20.80;61.50;;;;;;5055668;28;20117;-52
2024/01/20 01:03:09;;;;;;;54.38;7.13;;;20.70;62.10;;;;;;5035064;28;20081;-56
2024/01/20 01:05:35;;;;;;;39.83;6.25;;;20.60;63.00;;;;;;5043424;28;20077;-50
2024/01/20 01:08:03;;;;;;;33.85;6.53;;;20.50;63.10;;;;;;5041967;28;20113;-49
2024/01/20 01:10:30;;;;;;;42.58;6.43;;;20.40;63.20;;;;;;5043997;28;20847;-54
2024/01/20 01:12:56;;;;;;;30.50;5.60;;;20.20;63.80;;;;;;5039728;28;20108;-50
2024/01/20 01:15:23;;;;;;;41.67;5.63;;;20.10;64.00;;;;;;5042529;28;20077;-58
2024/01/20 01:17:49;;;;;;;43.90;5.90;;;20.00;64.50;;;;;;5041368;28;20116;-52
2024/01/20 01:20:16;;;;;;;38.67;5.45;;;19.90;65.50;;;;;;5046130;28;20165;-52
2024/01/20 01:22:42;;;;;;;34.00;5.53;;;19.80;66.20;;;;;;5040592;28;20128;-54
2024/01/20 01:25:09;;;;;;;34.45;5.50;;;19.70;66.80;;;;;;5039954;28;20085;-58
2024/01/20 01:27:36;;;;;;;29.17;5.53;;;19.60;67.00;;;;;;5041341;28;20124;-51
2024/01/20 01:30:03;;;;;;;25.75;5.72;;;19.40;67.10;;;;;;5037782;28;20084;-53
2024/01/20 01:32:29;;;;;;;30.10;6.40;;;19.30;68.50;;;;;;5041149;28;20074;-49
2024/01/20 01:34:55;;;;;;;34.55;5.72;;;19.30;68.60;;;;;;5041692;28;20078;-56
2024/01/20 01:37:22;;;;;;;40.40;6.10;;;19.30;69.50;;;;;;5035386;28;20108;-51
2024/01/20 01:39:48;;;;;;;38.05;9.18;;;19.20;70.10;;;;;;5040637;28;20165;-52
2024/01/20 01:42:15;;;;;;;46.90;6.72;;;19.10;70.70;;;;;;5041089;28;20120;-50
2024/01/20 01:44:42;;;;;;;53.90;6.65;;;19.00;71.00;;;;;;5036847;28;20168;-53
2024/01/20 01:47:08;;;;;;;45.95;6.70;;;18.90;71.50;;;;;;5038185;28;20084;-53
2024/01/20 01:49:35;;;;;;;48.58;6.47;;;18.90;72.20;;;;;;5034117;28;20066;-51
2024/01/20 01:52:02;;;;;;;35.05;6.40;;;18.80;72.10;;;;;;5040303;28;20066;-56
2024/01/20 01:54:29;;;;;;;49.40;8.32;;;18.70;72.70;;;;;;5033133;28;20069;-50
2024/01/20 01:56:59;;;;;;;39.17;7.45;;;18.70;73.10;;;;;;5040211;28;20074;-52
2024/01/20 01:59:29;;;;;;;55.55;8.30;;;18.60;73.60;;;;;;5038849;28;20135;-54
2024/01/20 02:01:56;;;;;;;61.15;10.02;;;18.50;74.10;;;;;;5033831;28;20082;-51
2024/01/20 02:04:22;;;;;;;62.83;11.23;;;18.50;74.60;;;;;;5040955;28;20089;-54
2024/01/20 02:06:49;;;;;;;60.08;10.65;;;18.50;75.20;;;;;;5046552;28;20121;-53
2024/01/20 02:09:17;;;;;;;78.32;10.50;;;18.40;75.30;;;;;;5048863;28;20701;-52
2024/01/20 02:11:45;;;;;;;86.78;11.93;;;18.20;75.70;;;;;;5048682;28;20079;-53
2024/01/20 02:14:12;;;;;;;103.65;11.57;;;18.10;76.50;;;;;;5053221;28;20687;-49
2024/01/20 02:16:38;;;;;;;75.38;12.10;;;18.00;77.10;;;;;;5057494;28;20084;-57
2024/01/20 02:19:08;;;;;;;102.05;12.20;;;18.00;77.30;;;;;;5061271;28;20389;-51
2024/01/20 02:21:36;;;;;;;48.72;10.50;;;17.90;77.70;;;;;;5043111;28;20133;-47
2024/01/20 02:24:05;;;;;;;61.20;10.48;;;17.80;78.10;;;;;;5040478;28;20096;-49
2024/01/20 02:26:32;;;;;;;44.63;10.75;;;17.80;79.20;;;;;;5040896;28;20077;-48
2024/01/20 02:28:58;;;;;;;55.38;10.07;;;17.80;79.70;;;;;;5051946;28;20088;-52
2024/01/20 02:31:25;;;;;;;67.10;10.93;;;17.90;80.00;;;;;;5041417;28;20100;-51
2024/01/20 02:33:51;;;;;;;73.40;11.65;;;17.90;80.10;;;;;;5039252;28;20512;-52
2024/01/20 02:36:17;;;;;;;38.00;11.20;;;17.90;80.20;;;;;;5054131;28;20197;-48
2024/01/20 02:38:44;;;;;;;44.70;13.73;;;17.90;80.60;;;;;;5056251;28;20119;-47
2024/01/20 02:41:11;;;;;;;59.35;14.07;;;17.80;80.90;;;;;;5037962;28;20069;-52
2024/01/20 02:43:38;;;;;;;51.08;14.68;;;17.80;81.20;;;;;;5054833;28;20088;-52
2024/01/20 02:46:05;;;;;;;51.90;14.40;;;17.80;81.20;;;;;;5041200;28;20283;-51
2024/01/20 02:48:31;;;;;;;48.63;14.32;;;17.80;82.00;;;;;;5055402;28;20173;-50
2024/01/20 02:50:58;;;;;;;46.67;14.00;;;17.70;82.30;;;;;;5037718;28;20478;-53
2024/01/20 02:53:25;;;;;;;54.78;14.75;;;17.70;82.90;;;;;;5037426;28;20070;-54
2024/01/20 02:55:52;;;;;;;61.50;15.13;;;17.70;83.20;;;;;;5039461;28;20501;-53
2024/01/20 02:58:18;;;;;;;57.83;16.02;;;17.70;83.60;;;;;;5043669;28;20111;-51
2024/01/20 03:00:45;;;;;;;58.40;15.48;;;17.60;83.70;;;;;;5064503;28;20554;-51
2024/01/20 03:03:11;;;;;;;75.22;17.42;;;17.60;84.30;;;;;;5059168;28;20481;-48
2024/01/20 03:05:38;;;;;;;57.83;17.45;;;17.50;84.60;;;;;;5040286;28;20577;-51
2024/01/20 03:08:05;;;;;;;75.05;20.60;;;17.50;85.00;;;;;;5033845;28;20250;-51
2024/01/20 03:10:32;;;;;;;66.90;22.67;;;17.40;85.20;;;;;;5039479;28;20086;-50
2024/01/20 03:12:59;;;;;;;68.78;26.17;;;17.40;85.60;;;;;;5059757;28;20073;-54
2024/01/20 03:15:25;;;;;;;58.67;25.17;;;17.40;86.20;;;;;;5043430;28;20085;-55
2024/01/20 03:17:52;;;;;;;65.70;28.20;;;17.40;86.70;;;;;;5049921;28;20109;-54
2024/01/20 03:20:18;;;;;;;87.43;30.63;;;17.40;86.40;;;;;;5059499;28;20073;-53
2024/01/20 03:22:44;;;;;;;83.90;30.42;;;17.30;86.80;;;;;;5050761;28;20195;-56
2024/01/20 03:25:11;;;;;;;72.03;28.38;;;17.30;87.40;;;;;;5062261;28;20138;-51
2024/01/20 03:27:37;;;;;;;68.57;26.48;;;17.30;87.90;;;;;;5044557;28;20079;-51
2024/01/20 03:30:04;;;;;;;86.60;28.40;;;17.20;88.00;;;;;;5044598;28;20073;-53
2024/01/20 03:32:31;;;;;;;79.70;22.02;;;17.10;88.30;;;;;;5059225;28;20076;-49
2024/01/20 03:34:57;;;;;;;73.57;23.50;;;17.10;89.00;;;;;;5038436;28;20077;-52
2024/01/20 03:37:24;;;;;;;75.43;20.00;;;17.00;90.00;;;;;;5048496;28;20101;-49
2024/01/20 03:39:50;;;;;;;84.43;21.27;;;17.00;89.40;;;;;;5061681;28;20168;-51
2024/01/20 03:42:18;;;;;;;80.30;20.50;;;16.90;89.80;;;;;;5041754;28;20120;-52
2024/01/20 03:44:45;;;;;;;91.55;20.40;;;16.90;90.10;;;;;;5038068;28;20551;-52
2024/01/20 03:47:11;;;;;;;71.68;19.27;;;16.90;90.50;;;;;;5038499;28;20084;-59
2024/01/20 03:49:38;;;;;;;59.65;19.58;;;16.90;90.70;;;;;;5052436;28;20069;-49
2024/01/20 03:52:05;;;;;;;73.63;19.83;;;16.90;90.70;;;;;;5057225;28;20634;-51
2024/01/20 03:54:31;;;;;;;81.88;20.27;;;16.80;90.70;;;;;;5036511;28;20074;-50
2024/01/20 03:56:58;;;;;;;64.80;20.25;;;16.70;90.90;;;;;;5061200;28;20079;-53
2024/01/20 03:59:25;;;;;;;79.78;20.75;;;16.60;91.10;;;;;;5044065;28;20077;-49
2024/01/20 04:01:51;;;;;;;87.65;20.17;;;16.70;91.30;;;;;;5060385;28;20084;-47
2024/01/20 04:04:18;;;;;;;84.05;20.33;;;16.70;91.40;;;;;;5052800;28;20604;-52
2024/01/20 04:06:44;;;;;;;88.72;21.35;;;16.60;91.50;;;;;;5039788;28;20127;-54
2024/01/20 04:09:11;;;;;;;80.72;21.77;;;16.60;91.70;;;;;;5047149;28;20073;-54
2024/01/20 04:11:38;;;;;;;88.55;21.83;;;16.40;91.90;;;;;;5040516;28;20078;-56
2024/01/20 04:14:05;;;;;;;107.03;21.50;;;16.40;92.20;;;;;;5047915;28;20074;-50
2024/01/20 04:16:32;;;;;;;77.07;22.42;;;16.40;92.20;;;;;;5046382;28;20077;-52
2024/01/20 04:18:58;;;;;;;88.30;22.25;;;16.40;92.20;;;;;;5040428;28;20101;-53
2024/01/20 04:21:25;;;;;;;81.88;23.95;;;16.50;92.40;;;;;;5057799;28;20421;-56
2024/01/20 04:23:51;;;;;;;87.28;24.55;;;16.40;92.50;;;;;;5042356;28;20135;-50
2024/01/20 04:26:20;;;;;;;92.05;26.42;;;16.40;92.70;;;;;;5064342;28;20075;-53
2024/01/20 04:28:46;;;;;;;94.10;28.83;;;16.40;92.80;;;;;;5064481;28;20092;-54
2024/01/20 04:31:13;;;;;;;78.70;26.92;;;16.40;93.00;;;;;;5048691;28;20170;-53
2024/01/20 04:33:40;;;;;;;90.97;28.17;;;16.40;93.00;;;;;;5064559;28;20076;-53
2024/01/20 04:36:07;;;;;;;102.65;28.40;;;16.40;93.00;;;;;;5065944;28;20535;-51
2024/01/20 04:38:33;;;;;;;98.60;28.23;;;16.30;93.20;;;;;;5045413;28;20211;-51
2024/01/20 04:41:00;;;;;;;98.53;30.08;;;16.30;93.40;;;;;;5061671;28;20069;-53
2024/01/20 04:43:28;;;;;;;83.30;30.00;;;16.20;93.60;;;;;;5041933;28;20077;-47
2024/01/20 04:45:55;;;;;;;114.15;33.58;;;16.20;93.90;;;;;;5044132;28;20080;-56
2024/01/20 04:48:22;;;;;;;107.13;33.90;;;16.20;93.90;;;;;;5047020;28;20163;-51
2024/01/20 04:50:48;;;;;;;118.22;32.45;;;16.30;93.80;;;;;;5059426;28;20074;-51
2024/01/20 04:53:15;;;;;;;114.32;38.90;;;16.30;94.10;;;;;;5047370;28;20172;-56
2024/01/20 04:55:41;;;;;;;96.72;37.25;;;16.30;94.10;;;;;;5060957;28;20104;-55
2024/01/20 04:58:08;;;;;;;98.25;37.25;;;16.20;93.90;;;;;;5060772;28;20112;-50
2024/01/20 05:00:36;;;;;;;96.53;36.45;;;16.20;94.00;;;;;;5045391;28;20107;-50
2024/01/20 05:03:02;;;;;;;91.65;37.47;;;16.20;94.20;;;;;;5045801;28;20072;-51
2024/01/20 05:05:29;;;;;;;83.80;36.42;;;16.20;94.30;;;;;;5061799;28;20088;-54
2024/01/20 05:07:55;;;;;;;91.07;38.42;;;16.10;94.40;;;;;;5063863;28;20219;-54
2024/01/20 05:10:22;;;;;;;104.35;40.38;;;16.00;94.50;;;;;;5062603;28;20090;-48
2024/01/20 05:12:48;;;;;;;92.68;35.17;;;16.00;94.70;;;;;;5046847;28;20073;-53
2024/01/20 05:15:16;;;;;;;100.85;38.13;;;16.00;94.80;;;;;;5045397;28;20150;-51
2024/01/20 05:17:43;;;;;;;107.45;37.75;;;16.00;95.10;;;;;;5063901;28;20127;-51
2024/01/20 05:20:15;;;;;;;104.32;36.17;;;16.00;95.10;;;;;;5042176;28;20111;-52
2024/01/20 05:22:42;;;;;;;87.78;37.05;;;16.00;95.20;;;;;;5058823;28;20107;-53
2024/01/20 05:25:09;;;;;;;99.90;36.55;;;15.90;95.30;;;;;;5057741;28;20078;-55
2024/01/20 05:27:35;;;;;;;107.18;34.65;;;15.90;95.40;;;;;;5042702;28;20073;-50
2024/01/20 05:30:02;;;;;;;110.90;36.78;;;15.80;95.60;;;;;;5041408;28;20108;-51
2024/01/20 05:32:29;;;;;;;103.90;34.90;;;15.80;95.90;;;;;;5063601;28;21020;-50
2024/01/20 05:34:55;;;;;;;107.53;35.47;;;15.70;95.90;;;;;;5047867;28;20073;-51
2024/01/20 05:37:22;;;;;;;112.57;37.58;;;15.70;96.10;;;;;;5063682;28;20136;-48
2024/01/20 05:39:48;;;;;;;87.75;33.20;;;15.70;96.10;;;;;;5057135;28;20435;-51
2024/01/20 05:42:15;;;;;;;105.13;32.78;;;15.60;96.30;;;;;;5042794;28;20169;-53
2024/01/20 05:44:41;;;;;;;88.82;32.53;;;15.60;96.20;;;;;;5044000;28;20105;-51
2024/01/20 05:47:08;;;;;;;99.93;33.55;;;15.60;96.10;;;;;;5043616;28;20077;-49
2024/01/20 05:49:34;;;;;;;104.18;32.70;;;15.60;96.20;;;;;;5062684;28;20078;-50
2024/01/20 05:52:02;;;;;;;89.25;31.13;;;15.50;96.40;;;;;;5061413;28;20156;-51
2024/01/20 05:54:28;;;;;;;86.70;27.85;;;15.50;96.40;;;;;;5039271;28;20112;-50
2024/01/20 05:56:55;;;;;;;87.93;27.70;;;15.50;96.20;;;;;;5062087;28;20123;-51
2024/01/20 05:59:22;;;;;;;73.47;26.90;;;15.50;96.50;;;;;;5044489;28;20088;-48
2024/01/20 06:01:50;;;;;;;79.28;26.85;;;15.40;96.40;;;;;;5040376;28;20126;-49
2024/01/20 06:04:18;;;;;;;77.57;27.00;;;15.30;96.30;;;;;;5063929;28;20086;-56
2024/01/20 06:06:46;;;;;;;85.38;27.63;;;15.30;96.90;;;;;;5046470;28;20082;-53
2024/01/20 06:09:13;;;;;;;78.93;29.02;;;15.40;97.00;;;;;;5043759;28;20138;-52
2024/01/20 06:11:40;;;;;;;83.13;30.10;;;15.40;97.20;;;;;;5042828;28;20160;-49
2024/01/20 06:14:06;;;;;;;75.75;28.60;;;15.40;97.00;;;;;;5043185;28;20226;-53
2024/01/20 06:16:38;;;;;;;81.80;27.77;;;15.30;96.90;;;;;;5049735;28;20084;-46
2024/01/20 06:19:06;;;;;;;71.28;26.33;;;15.30;96.90;;;;;;5060008;28;20142;-54
2024/01/20 06:21:33;;;;;;;74.47;26.55;;;15.40;96.90;;;;;;5042639;28;20439;-49
2024/01/20 06:23:59;;;;;;;75.32;26.52;;;15.20;96.90;;;;;;5041804;28;20520;-50
2024/01/20 06:26:26;;;;;;;74.45;25.63;;;15.20;97.10;;;;;;5042721;28;20543;-47
2024/01/20 06:28:52;;;;;;;66.40;25.63;;;15.10;97.20;;;;;;5047083;28;20081;-51
2024/01/20 06:31:27;;;;;;;68.25;24.48;;;15.10;97.20;;;;;;5058756;28;20161;-50
2024/01/20 06:33:54;;;;;;;61.17;25.05;;;15.20;97.30;;;;;;5065165;28;20080;-51
2024/01/20 06:36:21;;;;;;;56.92;22.90;;;15.10;97.30;;;;;;5042023;28;20547;-55
2024/01/20 06:38:48;;;;;;;77.10;26.98;;;15.10;97.30;;;;;;5060740;28;20188;-56
2024/01/20 06:41:16;;;;;;;73.82;27.77;;;15.00;97.90;;;;;;5064169;28;20084;-53
2024/01/20 06:43:42;;;;;;;61.80;27.20;;;15.00;98.00;;;;;;5043768;28;20077;-53
2024/01/20 06:46:09;;;;;;;62.97;28.02;;;15.00;98.00;;;;;;5055799;28;20161;-49
2024/01/20 06:48:35;;;;;;;72.30;30.02;;;14.90;98.20;;;;;;5063253;28;20105;-49
2024/01/20 06:51:06;;;;;;;85.85;32.53;;;14.80;98.30;;;;;;5045225;28;20077;-46
2024/01/20 06:53:36;;;;;;;83.07;32.67;;;14.90;98.50;;;;;;5060373;28;20085;-58
2024/01/20 06:56:04;;;;;;;76.47;31.30;;;14.80;98.40;;;;;;5041767;28;20097;-53
2024/01/20 06:58:30;;;;;;;77.50;29.40;;;14.70;98.50;;;;;;5060128;28;20130;-53
2024/01/20 07:00:57;;;;;;;76.68;27.88;;;14.60;99.00;;;;;;5041419;28;20078;-52
2024/01/20 07:03:23;;;;;;;64.93;26.02;;;14.60;99.10;;;;;;5059277;28;20100;-56
2024/01/20 07:05:50;;;;;;;73.55;29.85;;;14.60;99.00;;;;;;5041457;28;20538;-54
2024/01/20 07:08:17;;;;;;;75.28;26.20;;;14.60;99.30;;;;;;5039498;28;20119;-50
2024/01/20 07:10:43;;;;;;;63.67;23.73;;;14.60;99.40;;;;;;5042079;28;21294;-47
2024/01/20 07:13:10;;;;;;;64.57;22.48;;;14.70;99.20;;;;;;5061554;28;20096;-52
2024/01/20 07:15:38;;;;;;;51.35;22.63;;;14.50;99.40;;;;;;5029643;28;20092;-50
2024/01/20 07:18:04;;;;;;;56.45;23.45;;;14.50;99.50;;;;;;5060940;28;20122;-47
2024/01/20 07:20:31;;;;;;;68.03;24.23;;;14.50;99.70;;;;;;5042216;28;20454;-50
2024/01/20 07:22:58;;;;;;;56.85;21.08;;;14.60;99.70;;;;;;5057016;28;20544;-49
2024/01/20 07:25:25;;;;;;;65.22;22.33;;;14.60;99.60;;;;;;5044722;28;20172;-50
2024/01/20 07:27:51;;;;;;;63.65;23.02;;;14.60;99.60;;;;;;5043036;28;20074;-51
2024/01/20 07:30:18;;;;;;;59.95;22.45;;;14.60;99.80;;;;;;5043312;28;20123;-51
2024/01/20 07:32:44;;;;;;;58.25;22.73;;;14.60;99.60;;;;;;5041982;28;20092;-51
2024/01/20 07:35:11;;;;;;;72.93;22.08;;;14.50;99.60;;;;;;5059959;28;20143;-59
2024/01/20 07:37:37;;;;;;;59.75;21.40;;;14.50;99.90;;;;;;5043792;28;20123;-48
2024/01/20 07:40:05;;;;;;;51.05;21.55;;;14.40;99.90;;;;;;5060550;28;20080;-54
2024/01/20 07:42:35;;;;;;;60.83;21.70;;;14.30;99.90;;;;;;5042443;28;20079;-52
2024/01/20 07:45:02;;;;;;;57.33;24.13;;;14.30;99.90;;;;;;5043408;28;20123;-52
2024/01/20 07:47:28;;;;;;;85.72;23.77;;;14.30;99.90;;;;;;5042746;28;20085;-53
2024/01/20 07:49:55;;;;;;;86.10;40.90;;;14.40;99.90;;;;;;5063338;28;20097;-52
2024/01/20 07:52:21;;;;;;;62.40;24.58;;;14.40;99.90;;;;;;5043440;28;20069;-49
2024/01/20 07:54:48;;;;;;;80.95;27.55;;;14.50;99.90;;;;;;5043868;28;20117;-48
2024/01/20 07:57:14;;;;;;;72.75;27.05;;;14.50;99.90;;;;;;5056714;28;20105;-50
2024/01/20 07:59:41;;;;;;;69.20;27.58;;;14.50;99.90;;;;;;5048641;28;20088;-51
2024/01/20 08:02:07;;;;;;;75.50;27.30;;;14.50;99.90;;;;;;5049371;28;20077;-50
2024/01/20 08:04:34;;;;;;;63.47;26.83;;;14.50;99.90;;;;;;5060974;28;20080;-59
2024/01/20 08:07:00;;;;;;;69.72;30.15;;;14.40;99.90;;;;;;5062505;28;20486;-53
2024/01/20 08:09:27;;;;;;;79.95;31.85;;;14.50;99.90;;;;;;5059555;28;20128;-52
2024/01/20 08:11:54;;;;;;;93.03;32.42;;;14.50;99.90;;;;;;5061623;28;20116;-54
2024/01/20 08:14:20;;;;;;;75.50;29.85;;;14.50;99.90;;;;;;5043497;28;20077;-50
2024/01/20 08:16:47;;;;;;;79.95;29.35;;;14.60;99.90;;;;;;5058563;28;20168;-58
2024/01/20 08:19:13;;;;;;;61.63;27.67;;;14.60;99.90;;;;;;5041476;28;20525;-53
2024/01/20 08:21:40;;;;;;;58.03;26.38;;;14.50;99.90;;;;;;5026757;28;20123;-52
2024/01/20 08:24:07;;;;;;;51.50;25.77;;;14.50;99.90;;;;;;5044218;28;20078;-52
2024/01/20 08:26:33;;;;;;;57.33;25.77;;;14.50;99.90;;;;;;5040305;28;20077;-54
2024/01/20 08:29:01;;;;;;;48.65;25.95;;;14.40;99.90;;;;;;5043209;28;20073;-50
2024/01/20 08:31:28;;;;;;;67.72;27.35;;;14.40;99.90;;;;;;5043783;28;20234;-50
2024/01/20 08:33:55;;;;;;;66.38;27.60;;;14.40;99.90;;;;;;5036607;28;20127;-53
2024/01/20 08:36:21;;;;;;;63.67;28.23;;;14.30;99.90;;;;;;5061627;28;20077;-54
2024/01/20 08:38:48;;;;;;;62.33;27.95;;;14.40;99.90;;;;;;5043434;28;20111;-50
2024/01/20 08:41:14;;;;;;;71.72;28.35;;;14.40;99.90;;;;;;5041322;28;20073;-55
2024/01/20 08:43:44;;;;;;;70.90;27.63;;;14.40;99.90;;;;;;5044793;28;20107;-50
2024/01/20 08:46:11;;;;;;;71.38;27.90;;;14.40;99.90;;;;;;5039223;28;20081;-52
2024/01/20 08:48:38;;;;;;;62.75;27.15;;;14.40;99.90;;;;;;5039617;28;20105;-52
2024/01/20 08:51:05;;;;;;;81.05;32.20;;;14.40;99.90;;;;;;5057858;28;20088;-57
2024/01/20 08:53:33;;;;;;;85.40;31.98;;;14.40;99.90;;;;;;5060507;28;20077;-49
2024/01/20 08:56:01;;;;;;;88.70;34.78;;;14.40;99.90;;;;;;5040310;28;20077;-50
2024/01/20 08:58:28;;;;;;;68.93;31.98;;;14.40;99.90;;;;;;5063031;28;20163;-52
2024/01/20 09:00:55;;;;;;;74.63;35.78;;;14.40;99.90;;;;;;5057333;28;20092;-52
2024/01/20 09:03:22;;;;;;;92.45;38.17;;;14.30;99.90;;;;;;5039037;28;20076;-57
2024/01/20 09:05:49;;;;;;;122.45;43.08;;;14.20;99.90;;;;;;5038414;28;20073;-51
2024/01/20 09:08:15;;;;;;;146.75;49.63;;;14.20;99.90;;;;;;4957729;28;2922119;-51
2024/01/20 09:10:42;;;;;;;120.95;50.28;;;14.20;99.90;;;;;;5042799;28;20084;-51
2024/01/20 09:13:08;;;;;;;153.57;48.47;;;14.20;99.90;;;;;;5041600;28;20085;-50
2024/01/20 09:15:35;;;;;;;143.25;48.78;;;14.20;99.90;;;;;;5041438;28;20439;-50
2024/01/20 09:18:02;;;;;;;155.25;49.75;;;14.20;99.90;;;;;;5042219;28;20129;-55
2024/01/20 09:20:28;;;;;;;159.45;50.63;;;14.30;99.90;;;;;;5058721;28;20109;-50
2024/01/20 09:22:55;;;;;;;157.23;53.58;;;14.30;99.90;;;;;;5043019;28;20103;-54
2024/01/20 09:25:21;;;;;;;182.20;52.88;;;14.40;99.90;;;;;;5041859;28;20530;-50
2024/01/20 09:27:48;;;;;;;171.73;56.15;;;14.40;99.90;;;;;;5059464;28;20081;-50
2024/01/20 09:30:14;;;;;;;174.73;57.70;;;14.40;99.90;;;;;;5041990;28;20081;-51
2024/01/20 09:32:41;;;;;;;192.27;58.03;;;14.40;99.90;;;;;;5058548;28;20151;-53
2024/01/20 09:35:08;;;;;;;181.50;59.10;;;14.40;99.90;;;;;;5041041;28;20078;-52
2024/01/20 09:37:36;;;;;;;222.98;63.75;;;14.40;99.90;;;;;;5045033;28;20132;-50
2024/01/20 09:40:05;;;;;;;187.57;66.25;;;14.40;99.90;;;;;;5041893;28;20089;-49
2024/01/20 09:42:32;;;;;;;224.27;66.75;;;14.40;99.90;;;;;;5057301;28;20523;-56
2024/01/20 09:44:59;;;;;;;196.57;66.82;;;14.50;99.90;;;;;;5043412;28;20131;-54
2024/01/20 09:47:26;;;;;;;207.43;69.13;;;14.50;99.90;;;;;;5045092;28;20115;-55
2024/01/20 09:49:53;;;;;;;222.43;71.85;;;14.50;99.90;;;;;;5043751;28;20100;-51
2024/01/20 09:52:31;;;;;;;234.80;68.35;;;14.60;99.90;;;;;;5061894;28;20072;-51
2024/01/20 09:55:16;;;;;;;214.57;67.82;;;14.50;99.90;;;;;;5058459;28;21595;-56
2024/01/20 09:57:43;;;;;;;204.43;66.30;;;14.40;99.90;;;;;;5043504;28;20855;-50
2024/01/20 10:00:13;;;;;;;198.52;63.92;;;14.40;99.90;;;;;;5039507;28;20077;-54
2024/01/20 10:02:46;;;;;;;208.13;67.85;;;14.40;99.90;;;;;;5057910;28;20096;-58
2024/01/20 10:05:14;;;;;;;201.30;66.90;;;14.30;99.90;;;;;;5058054;28;20080;-55
2024/01/20 10:07:41;;;;;;;199.38;62.03;;;14.40;99.90;;;;;;5040567;28;20125;-48
2024/01/20 10:10:18;;;;;;;192.73;66.53;;;14.40;99.90;;;;;;5038919;28;20877;-50
2024/01/20 10:12:54;;;;;;;192.95;66.68;;;14.40;99.90;;;;;;5037417;28;20077;-55
2024/01/20 10:15:26;;;;;;;191.93;64.90;;;14.50;99.90;;;;;;5038539;28;20088;-54
2024/01/20 10:17:53;;;;;;;191.43;61.03;;;14.50;99.90;;;;;;5036799;28;20641;-49
2024/01/20 10:20:31;;;;;;;187.07;59.38;;;14.60;99.90;;;;;;5039715;28;20218;-55
2024/01/20 10:23:01;;;;;;;196.23;59.58;;;14.50;99.90;;;;;;5040006;28;20172;-53
2024/01/20 10:25:28;;;;;;;188.20;58.45;;;14.40;99.90;;;;;;5039030;28;20078;-50
2024/01/20 10:27:54;;;;;;;166.25;58.30;;;14.40;99.90;;;;;;5039550;28;20239;-47
2024/01/20 10:30:22;;;;;;;168.02;57.40;;;14.40;99.90;;;;;;5039148;28;20124;-48
2024/01/20 10:32:49;;;;;;;183.30;59.10;;;14.50;99.90;;;;;;5026453;28;20096;-52
2024/01/20 10:35:15;;;;;;;169.55;58.88;;;14.60;99.90;;;;;;5039378;28;20385;-54
2024/01/20 10:37:44;;;;;;;171.13;59.45;;;14.50;99.90;;;;;;5040015;28;20105;-51
2024/01/20 10:40:14;;;;;;;192.77;59.35;;;14.50;99.90;;;;;;5022683;28;20074;-50
2024/01/20 10:42:46;;;;;;;182.32;57.92;;;14.60;99.90;;;;;;5041825;28;20168;-46
2024/01/20 10:45:19;;;;;;;167.25;56.85;;;14.60;99.90;;;;;;5039601;28;20073;-50
2024/01/20 10:47:54;;;;;;;169.25;56.58;;;14.60;99.90;;;;;;5039836;28;20169;-47
2024/01/20 10:50:23;;;;;;;159.35;58.22;;;14.60;99.90;;;;;;5041811;28;20395;-51
2024/01/20 10:52:50;;;;;;;188.05;56.70;;;14.70;99.90;;;;;;5036574;28;20091;-54
2024/01/20 10:55:18;;;;;;;176.55;56.78;;;14.70;99.90;;;;;;5041132;28;20080;-48
2024/01/20 10:57:47;;;;;;;182.38;59.03;;;14.70;99.90;;;;;;5040226;28;20154;-52
2024/01/20 11:00:15;;;;;;;197.02;62.88;;;14.70;99.90;;;;;;5040787;28;20077;-51
2024/01/20 11:02:41;;;;;;;138.45;54.30;;;14.70;99.90;;;;;;5038252;28;20551;-51
2024/01/20 11:05:25;;;;;;;131.32;48.28;;;14.70;99.90;;;;;;5038475;28;20236;-50
2024/01/20 11:08:03;;;;;;;129.45;47.25;;;14.70;99.90;;;;;;5040080;28;20571;-59
2024/01/20 11:10:30;;;;;;;121.07;47.33;;;14.70;99.70;;;;;;5039015;28;20485;-55
2024/01/20 11:13:06;;;;;;;110.35;47.42;;;14.80;99.60;;;;;;5040507;28;20074;-53
2024/01/20 11:15:34;;;;;;;124.80;46.92;;;14.90;99.60;;;;;;5037720;28;20516;-47
2024/01/20 11:18:01;;;;;;;119.70;47.35;;;14.90;99.40;;;;;;5038268;28;20163;-50
2024/01/20 11:20:30;;;;;;;133.30;48.58;;;14.90;99.50;;;;;;5036727;28;20078;-49
2024/01/20 11:22:56;;;;;;;105.82;43.42;;;15.00;99.50;;;;;;5034815;28;20554;-51
2024/01/20 11:25:24;;;;;;;112.25;46.13;;;15.00;99.40;;;;;;5057445;28;20080;-50
2024/01/20 11:27:57;;;;;;;131.82;45.90;;;15.00;99.40;;;;;;5037142;28;20519;-51
2024/01/20 11:30:29;;;;;;;110.53;43.70;;;15.00;99.40;;;;;;5037119;28;20085;-50
2024/01/20 11:32:57;;;;;;;98.82;46.83;;;15.00;99.40;;;;;;5037859;28;20657;-51
2024/01/20 11:35:24;;;;;;;105.70;46.83;;;15.00;99.20;;;;;;5038425;28;20081;-51
2024/01/20 11:37:53;;;;;;;122.20;48.35;;;15.00;99.20;;;;;;5040950;28;20210;-51
2024/01/20 11:40:19;;;;;;;132.40;48.55;;;15.00;99.10;;;;;;5035370;28;20073;-51
2024/01/20 11:42:46;;;;;;;121.63;47.03;;;15.00;99.10;;;;;;5040279;28;20074;-51
2024/01/20 11:45:12;;;;;;;131.57;48.83;;;15.00;99.00;;;;;;5038147;28;20074;-50
2024/01/20 11:47:39;;;;;;;117.32;43.85;;;14.90;99.10;;;;;;5038656;28;20078;-53
2024/01/20 11:50:07;;;;;;;114.10;43.63;;;14.90;99.00;;;;;;5058087;28;20085;-49
2024/01/20 11:52:33;;;;;;;108.30;42.83;;;14.90;98.80;;;;;;5038822;28;20085;-49
2024/01/20 11:55:00;;;;;;;96.90;41.75;;;15.00;98.80;;;;;;5039366;28;20108;-55
2024/01/20 11:57:29;;;;;;;112.88;40.72;;;15.00;98.60;;;;;;5038365;28;20106;-53
2024/01/20 12:00:00;;;;;;;105.30;40.15;;;15.00;98.60;;;;;;5037044;28;20084;-51
2024/01/20 12:02:27;;;;;;;111.05;36.83;;;15.00;98.70;;;;;;5039530;28;20156;-54
2024/01/20 12:04:55;;;;;;;89.97;34.53;;;15.00;97.30;;;;;;5038269;28;20157;-51
2024/01/20 12:07:22;;;;;;;80.75;32.90;;;15.10;97.00;;;;;;5036196;28;20113;-52
2024/01/20 12:09:50;;;;;;;79.28;32.22;;;15.10;96.70;;;;;;5058838;28;20131;-54
2024/01/20 12:12:17;;;;;;;87.03;33.35;;;15.20;96.50;;;;;;5037381;28;20172;-52
2024/01/20 12:14:44;;;;;;;87.63;33.08;;;15.10;96.40;;;;;;5040372;28;20082;-49
2024/01/20 12:17:12;;;;;;;78.53;32.17;;;15.20;96.40;;;;;;5038721;28;20082;-52
2024/01/20 12:19:40;;;;;;;77.57;32.90;;;15.10;96.40;;;;;;5037881;28;20086;-46
2024/01/20 12:22:07;;;;;;;74.90;33.30;;;15.10;96.60;;;;;;5037249;28;20116;-49
2024/01/20 12:24:34;;;;;;;88.95;33.17;;;15.10;96.50;;;;;;5057815;28;20088;-55
2024/01/20 12:27:07;;;;;;;94.22;32.45;;;15.10;96.30;;;;;;5040324;28;20208;-51